sensor_id;sensor_type;location;lat;lon;timestamp;pressure;altitude;pressure_sealevel;temperature;humidity
38054;BME280;23859;50.672;7.164;2023-02-19T00:01:42;100925.50;;;10.26;100.00
38054;BME280;23859;50.672;7.164;2023-02-19T00:04:16;101025.03;;;10.84;100.00
38054;BME280;23859;50.672;7.164;2023-02-19T00:06:44;100940.13;;;10.31;100.00
38054;BME280;23859;50.672;7.164;2023-02-19T00:09:12;101032.31;;;10.82;100.00
38054;BME280;23859;50.672;7.164;2023-02-19T00:11:39;101029.59;;;10.93;100.00
38054;BME280;23859;50.672;7.164;2023-02-19T00:14:06;101024.53;;;10.90;100.00
38054;BME280;23859;50.672;7.164;2023-02-19T00:16:37;101024.53;;;10.90;100.00
38054;BME280;23859;50.672;7.164;2023-02-19T00:19:05;101014.75;;;10.91;100.00
38054;BME280;23859;50.672;7.164;2023-02-19T00:21:32;101015.00;;;10.88;100.00
38054;BME280;23859;50.672;7.164;2023-02-19T00:24:00;101011.50;;;10.87;100.00
38054;BME280;23859;50.672;7.164;2023-02-19T00:26:27;101016.22;;;10.84;100.00
38054;BME280;23859;50.672;7.164;2023-02-19T00:28:54;101013.94;;;10.79;100.00
38054;BME280;23859;50.672;7.164;2023-02-19T00:31:22;100915.38;;;10.20;100.00
38054;BME280;23859;50.672;7.164;2023-02-19T00:33:51;101026.59;;;10.87;100.00
38054;BME280;23859;50.672;7.164;2023-02-19T00:36:18;101021.09;;;10.79;100.00
38054;BME280;23859;50.672;7.164;2023-02-19T00:38:44;101023.88;;;10.77;100.00
38054;BME280;23859;50.672;7.164;2023-02-19T00:41:12;101021.22;;;10.77;100.00
38054;BME280;23859;50.672;7.164;2023-02-19T00:43:53;101022.44;;;10.73;100.00
38054;BME280;23859;50.672;7.164;2023-02-19T00:46:42;101022.00;;;10.89;100.00
38054;BME280;23859;50.672;7.164;2023-02-19T00:49:07;101013.94;;;10.79;100.00
38054;BME280;23859;50.672;7.164;2023-02-19T00:51:37;101016.88;;;10.76;100.00
38054;BME280;23859;50.672;7.164;2023-02-19T00:54:04;101007.06;;;10.77;100.00
38054;BME280;23859;50.672;7.164;2023-02-19T00:56:31;101018.56;;;10.77;100.00
38054;BME280;23859;50.672;7.164;2023-02-19T00:58:57;101006.88;;;10.89;100.00
38054;BME280;23859;50.672;7.164;2023-02-19T01:01:23;101014.84;;;10.89;100.00
38054;BME280;23859;50.672;7.164;2023-02-19T01:03:49;101014.63;;;10.92;100.00
38054;BME280;23859;50.672;7.164;2023-02-19T01:06:17;101001.84;;;10.86;100.00
38054;BME280;23859;50.672;7.164;2023-02-19T01:08:43;101015.59;;;10.91;100.00
38054;BME280;23859;50.672;7.164;2023-02-19T01:11:10;101007.53;;;10.82;100.00
38054;BME280;23859;50.672;7.164;2023-02-19T01:13:37;100952.44;;;10.53;100.00
38054;BME280;23859;50.672;7.164;2023-02-19T01:16:09;101002.34;;;10.80;100.00
38054;BME280;23859;50.672;7.164;2023-02-19T01:18:37;100994.75;;;10.76;100.00
38054;BME280;23859;50.672;7.164;2023-02-19T01:21:08;101030.84;;;10.78;100.00
38054;BME280;23859;50.672;7.164;2023-02-19T01:23:35;101006.69;;;10.81;100.00
38054;BME280;23859;50.672;7.164;2023-02-19T01:26:04;101009.59;;;10.78;100.00
38054;BME280;23859;50.672;7.164;2023-02-19T01:28:31;101000.72;;;10.89;100.00
38054;BME280;23859;50.672;7.164;2023-02-19T01:31:03;101004.19;;;10.80;100.00
38054;BME280;23859;50.672;7.164;2023-02-19T01:33:30;101003.31;;;10.79;100.00
38054;BME280;23859;50.672;7.164;2023-02-19T01:35:56;101001.63;;;10.78;100.00
38054;BME280;23859;50.672;7.164;2023-02-19T01:38:22;101000.16;;;10.85;100.00
38054;BME280;23859;50.672;7.164;2023-02-19T01:41:00;100982.81;;;10.70;100.00
38054;BME280;23859;50.672;7.164;2023-02-19T01:43:26;100977.00;;;10.76;100.00
38054;BME280;23859;50.672;7.164;2023-02-19T01:45:53;100971.91;;;10.73;100.00
38054;BME280;23859;50.672;7.164;2023-02-19T01:48:32;100971.22;;;10.71;100.00
38054;BME280;23859;50.672;7.164;2023-02-19T01:51:13;100978.56;;;10.79;100.00
38054;BME280;23859;50.672;7.164;2023-02-19T01:53:45;100955.78;;;10.65;100.00
38054;BME280;23859;50.672;7.164;2023-02-19T01:56:14;100969.66;;;10.69;100.00
38054;BME280;23859;50.672;7.164;2023-02-19T01:58:43;100974.53;;;10.64;100.00
38054;BME280;23859;50.672;7.164;2023-02-19T02:01:09;100970.31;;;10.62;100.00
38054;BME280;23859;50.672;7.164;2023-02-19T02:03:37;100966.91;;;10.60;100.00
38054;BME280;23859;50.672;7.164;2023-02-19T02:06:16;100955.69;;;10.56;100.00
38054;BME280;23859;50.672;7.164;2023-02-19T02:08:45;100961.34;;;10.62;100.00
38054;BME280;23859;50.672;7.164;2023-02-19T02:11:30;100967.75;;;10.60;100.00
38054;BME280;23859;50.672;7.164;2023-02-19T02:13:57;100969.78;;;10.67;100.00
38054;BME280;23859;50.672;7.164;2023-02-19T02:16:54;100972.25;;;10.60;100.00
38054;BME280;23859;50.672;7.164;2023-02-19T02:19:45;100965.56;;;10.65;100.00
38054;BME280;23859;50.672;7.164;2023-02-19T02:22:19;100971.97;;;10.62;100.00
38054;BME280;23859;50.672;7.164;2023-02-19T02:33:36;100975.63;;;10.62;100.00
38054;BME280;23859;50.672;7.164;2023-02-19T02:36:11;100974.53;;;10.64;100.00
38054;BME280;23859;50.672;7.164;2023-02-19T02:38:42;100973.94;;;10.61;100.00
38054;BME280;23859;50.672;7.164;2023-02-19T02:41:09;100974.63;;;10.62;100.00
38054;BME280;23859;50.672;7.164;2023-02-19T02:43:36;100868.16;;;10.03;100.00
38054;BME280;23859;50.672;7.164;2023-02-19T02:46:02;100969.06;;;10.65;100.00
38054;BME280;23859;50.672;7.164;2023-02-19T02:48:42;100969.59;;;10.60;100.00
38054;BME280;23859;50.672;7.164;2023-02-19T02:51:26;100971.97;;;10.62;100.00
38054;BME280;23859;50.672;7.164;2023-02-19T02:56:43;100967.25;;;10.66;100.00
38054;BME280;23859;50.672;7.164;2023-02-19T02:59:12;100976.88;;;10.78;100.00
38054;BME280;23859;50.672;7.164;2023-02-19T03:04:51;100967.47;;;10.74;100.00
38054;BME280;23859;50.672;7.164;2023-02-19T03:07:42;100962.28;;;10.72;100.00
38054;BME280;23859;50.672;7.164;2023-02-19T03:10:14;100960.47;;;10.73;100.00
38054;BME280;23859;50.672;7.164;2023-02-19T03:12:43;100952.16;;;10.87;100.00
38054;BME280;23859;50.672;7.164;2023-02-19T03:15:32;100961.81;;;10.88;100.00
38054;BME280;23859;50.672;7.164;2023-02-19T03:18:22;100963.06;;;10.84;100.00
38054;BME280;23859;50.672;7.164;2023-02-19T03:21:10;100963.56;;;10.78;100.00
38054;BME280;23859;50.672;7.164;2023-02-19T03:23:36;100962.28;;;10.72;100.00
38054;BME280;23859;50.672;7.164;2023-02-19T03:26:21;100966.53;;;10.84;100.00
38054;BME280;23859;50.672;7.164;2023-02-19T03:28:50;100961.97;;;10.86;100.00
38054;BME280;23859;50.672;7.164;2023-02-19T03:31:37;100976.09;;;11.07;100.00
38054;BME280;23859;50.672;7.164;2023-02-19T03:34:09;100973.50;;;10.96;100.00
38054;BME280;23859;50.672;7.164;2023-02-19T03:36:44;100974.75;;;10.92;100.00
38054;BME280;23859;50.672;7.164;2023-02-19T03:39:14;100986.63;;;10.88;100.00
38054;BME280;23859;50.672;7.164;2023-02-19T03:47:04;100984.78;;;10.89;100.00
38054;BME280;23859;50.672;7.164;2023-02-19T03:52:14;101000.81;;;10.98;100.00
38054;BME280;23859;50.672;7.164;2023-02-19T03:55:03;100997.28;;;10.98;100.00
38054;BME280;23859;50.672;7.164;2023-02-19T03:57:58;100994.53;;;10.99;100.00
38054;BME280;23859;50.672;7.164;2023-02-19T04:00:39;101002.03;;;10.94;100.00
38054;BME280;23859;50.672;7.164;2023-02-19T04:05:51;100999.50;;;10.93;100.00
38054;BME280;23859;50.672;7.164;2023-02-19T04:08:21;101006.31;;;10.86;100.00
38054;BME280;23859;50.672;7.164;2023-02-19T04:10:49;101004.94;;;10.91;100.00
38054;BME280;23859;50.672;7.164;2023-02-19T04:13:31;101015.31;;;10.94;100.00
38054;BME280;23859;50.672;7.164;2023-02-19T04:16:03;101020.53;;;10.96;100.00
38054;BME280;23859;50.672;7.164;2023-02-19T04:18:37;101019.72;;;10.84;100.00
38054;BME280;23859;50.672;7.164;2023-02-19T04:21:05;101017.53;;;10.89;100.00
38054;BME280;23859;50.672;7.164;2023-02-19T04:23:36;101024.97;;;10.95;100.00
38054;BME280;23859;50.672;7.164;2023-02-19T04:26:04;101028.16;;;10.89;100.00
38054;BME280;23859;50.672;7.164;2023-02-19T04:28:33;101031.22;;;10.85;100.00
38054;BME280;23859;50.672;7.164;2023-02-19T04:31:00;101026.50;;;10.88;100.00
38054;BME280;23859;50.672;7.164;2023-02-19T04:33:26;101034.19;;;10.91;100.00
38054;BME280;23859;50.672;7.164;2023-02-19T04:35:52;101037.97;;;10.89;100.00
38054;BME280;23859;50.672;7.164;2023-02-19T04:38:18;101023.09;;;10.86;100.00
38054;BME280;23859;50.672;7.164;2023-02-19T04:40:44;101041.84;;;10.85;100.00
38054;BME280;23859;50.672;7.164;2023-02-19T04:43:11;101034.13;;;10.82;100.00
38054;BME280;23859;50.672;7.164;2023-02-19T04:45:38;101039.69;;;10.79;100.00
38054;BME280;23859;50.672;7.164;2023-02-19T04:48:04;101050.66;;;10.85;100.00
38054;BME280;23859;50.672;7.164;2023-02-19T04:50:30;101038.00;;;10.78;100.00
38054;BME280;23859;50.672;7.164;2023-02-19T04:52:56;101046.09;;;10.76;100.00
38054;BME280;23859;50.672;7.164;2023-02-19T04:55:22;101067.59;;;10.73;100.00
38054;BME280;23859;50.672;7.164;2023-02-19T04:57:49;101053.16;;;10.66;100.00
38054;BME280;23859;50.672;7.164;2023-02-19T05:00:15;101055.78;;;10.77;100.00
38054;BME280;23859;50.672;7.164;2023-02-19T05:02:41;101069.31;;;10.74;100.00
38054;BME280;23859;50.672;7.164;2023-02-19T05:05:07;101053.22;;;10.76;100.00
38054;BME280;23859;50.672;7.164;2023-02-19T05:07:33;101058.56;;;10.65;100.00
38054;BME280;23859;50.672;7.164;2023-02-19T05:09:59;101062.56;;;10.70;100.00
38054;BME280;23859;50.672;7.164;2023-02-19T05:12:25;101062.69;;;10.69;100.00
38054;BME280;23859;50.672;7.164;2023-02-19T05:14:52;101063.22;;;10.83;100.00
38054;BME280;23859;50.672;7.164;2023-02-19T05:17:18;101080.66;;;10.76;100.00
38054;BME280;23859;50.672;7.164;2023-02-19T05:19:44;101080.06;;;10.73;100.00
38054;BME280;23859;50.672;7.164;2023-02-19T05:22:10;101080.66;;;10.76;100.00
38054;BME280;23859;50.672;7.164;2023-02-19T05:24:36;101086.66;;;10.89;100.00
38054;BME280;23859;50.672;7.164;2023-02-19T05:27:02;101082.38;;;10.77;100.00
38054;BME280;23859;50.672;7.164;2023-02-19T05:29:30;101080.38;;;10.90;100.00
38054;BME280;23859;50.672;7.164;2023-02-19T05:31:56;101089.09;;;10.81;100.00
38054;BME280;23859;50.672;7.164;2023-02-19T05:34:22;101076.19;;;10.77;100.00
38054;BME280;23859;50.672;7.164;2023-02-19T05:36:48;101093.22;;;10.74;100.00
38054;BME280;23859;50.672;7.164;2023-02-19T05:39:14;101094.19;;;10.73;100.00
38054;BME280;23859;50.672;7.164;2023-02-19T05:41:40;101091.81;;;10.70;100.00
38054;BME280;23859;50.672;7.164;2023-02-19T05:44:08;101097.44;;;10.77;100.00
38054;BME280;23859;50.672;7.164;2023-02-19T05:46:34;101117.38;;;10.82;100.00
38054;BME280;23859;50.672;7.164;2023-02-19T05:49:00;101103.72;;;10.76;100.00
38054;BME280;23859;50.672;7.164;2023-02-19T05:51:26;101107.00;;;10.79;100.00
38054;BME280;23859;50.672;7.164;2023-02-19T05:53:53;101101.94;;;10.76;100.00
38054;BME280;23859;50.672;7.164;2023-02-19T05:59:00;101124.13;;;10.86;100.00
38054;BME280;23859;50.672;7.164;2023-02-19T06:01:28;101124.47;;;10.93;100.00
38054;BME280;23859;50.672;7.164;2023-02-19T06:03:56;101134.03;;;10.84;100.00
38054;BME280;23859;50.672;7.164;2023-02-19T06:06:22;101056.25;;;10.40;100.00
38054;BME280;23859;50.672;7.164;2023-02-19T06:08:49;101143.09;;;10.93;100.00
38054;BME280;23859;50.672;7.164;2023-02-19T06:11:16;101147.09;;;10.87;100.00
38054;BME280;23859;50.672;7.164;2023-02-19T06:13:43;101154.34;;;10.85;100.00
38054;BME280;23859;50.672;7.164;2023-02-19T06:16:09;101141.81;;;10.76;100.00
38054;BME280;23859;50.672;7.164;2023-02-19T06:18:36;101151.34;;;10.79;100.00
38054;BME280;23859;50.672;7.164;2023-02-19T06:21:03;101163.31;;;10.73;100.00
38054;BME280;23859;50.672;7.164;2023-02-19T06:23:29;101160.91;;;10.70;100.00
38054;BME280;23859;50.672;7.164;2023-02-19T06:26:08;101165.47;;;10.79;100.00
38054;BME280;23859;50.672;7.164;2023-02-19T06:28:35;101159.19;;;10.80;100.00
38054;BME280;23859;50.672;7.164;2023-02-19T06:31:01;101162.97;;;10.67;100.00
38054;BME280;23859;50.672;7.164;2023-02-19T06:33:27;101163.44;;;10.61;100.00
38054;BME280;23859;50.672;7.164;2023-02-19T06:35:56;101164.53;;;10.59;100.00
38054;BME280;23859;50.672;7.164;2023-02-19T06:38:22;101166.09;;;10.61;100.00
38054;BME280;23859;50.672;7.164;2023-02-19T06:40:48;101167.19;;;10.59;100.00
38054;BME280;23859;50.672;7.164;2023-02-19T06:43:14;101174.69;;;10.64;100.00
38054;BME280;23859;50.672;7.164;2023-02-19T06:45:40;101173.59;;;10.56;100.00
38054;BME280;23859;50.672;7.164;2023-02-19T06:48:06;101180.13;;;10.63;100.00
38054;BME280;23859;50.672;7.164;2023-02-19T06:50:32;101087.31;;;10.07;100.00
38054;BME280;23859;50.672;7.164;2023-02-19T06:52:59;101177.00;;;10.58;100.00
38054;BME280;23859;50.672;7.164;2023-02-19T06:55:25;101184.84;;;10.60;100.00
38054;BME280;23859;50.672;7.164;2023-02-19T06:57:51;101181.09;;;10.73;100.00
38054;BME280;23859;50.672;7.164;2023-02-19T07:00:17;101186.06;;;10.66;100.00
38054;BME280;23859;50.672;7.164;2023-02-19T07:02:43;101199.34;;;10.66;100.00
38054;BME280;23859;50.672;7.164;2023-02-19T07:05:09;101201.41;;;10.63;100.00
38054;BME280;23859;50.672;7.164;2023-02-19T07:07:35;101190.88;;;10.72;100.00
38054;BME280;23859;50.672;7.164;2023-02-19T07:10:02;101208.03;;;10.68;100.00
38054;BME280;23859;50.672;7.164;2023-02-19T07:12:28;101210.06;;;10.76;100.00
38054;BME280;23859;50.672;7.164;2023-02-19T07:14:54;101206.84;;;10.72;100.00
38054;BME280;23859;50.672;7.164;2023-02-19T07:17:20;101213.44;;;10.78;100.00
38054;BME280;23859;50.672;7.164;2023-02-19T07:19:46;101222.50;;;10.86;100.00
38054;BME280;23859;50.672;7.164;2023-02-19T07:22:12;101220.81;;;10.96;100.00
38054;BME280;23859;50.672;7.164;2023-02-19T07:24:38;101216.31;;;10.97;100.00
38054;BME280;23859;50.672;7.164;2023-02-19T07:27:04;101226.25;;;10.84;100.00
38054;BME280;23859;50.672;7.164;2023-02-19T07:29:30;101226.25;;;10.95;100.00
38054;BME280;23859;50.672;7.164;2023-02-19T07:31:56;101235.78;;;10.97;100.00
38054;BME280;23859;50.672;7.164;2023-02-19T07:34:22;101242.53;;;11.01;100.00
38054;BME280;23859;50.672;7.164;2023-02-19T07:36:48;101245.34;;;11.00;100.00
38054;BME280;23859;50.672;7.164;2023-02-19T07:39:14;101248.59;;;11.03;100.00
38054;BME280;23859;50.672;7.164;2023-02-19T07:41:40;101248.97;;;10.99;100.00
38054;BME280;23859;50.672;7.164;2023-02-19T07:44:06;101254.41;;;11.08;100.00
38054;BME280;23859;50.672;7.164;2023-02-19T07:46:33;101242.06;;;10.96;100.00
38054;BME280;23859;50.672;7.164;2023-02-19T07:48:59;101269.88;;;10.92;100.00
38054;BME280;23859;50.672;7.164;2023-02-19T07:51:25;101266.16;;;10.84;100.00
38054;BME280;23859;50.672;7.164;2023-02-19T07:53:51;101266.34;;;10.92;100.00
38054;BME280;23859;50.672;7.164;2023-02-19T07:56:18;101269.41;;;10.98;100.00
38054;BME280;23859;50.672;7.164;2023-02-19T07:58:44;101275.81;;;10.96;100.00
38054;BME280;23859;50.672;7.164;2023-02-19T08:01:16;101275.34;;;10.91;100.00
38054;BME280;23859;50.672;7.164;2023-02-19T08:03:44;101278.69;;;10.93;100.00
38054;BME280;23859;50.672;7.164;2023-02-19T08:06:10;101282.56;;;11.00;100.00
38054;BME280;23859;50.672;7.164;2023-02-19T08:08:38;101288.50;;;11.03;100.00
38054;BME280;23859;50.672;7.164;2023-02-19T08:11:05;101285.97;;;10.91;100.00
38054;BME280;23859;50.672;7.164;2023-02-19T08:13:51;101293.06;;;11.01;100.00
38054;BME280;23859;50.672;7.164;2023-02-19T08:16:19;101298.03;;;11.17;100.00
38054;BME280;23859;50.672;7.164;2023-02-19T08:18:46;101312.78;;;11.10;100.00
38054;BME280;23859;50.672;7.164;2023-02-19T08:21:13;101307.09;;;11.03;100.00
38054;BME280;23859;50.672;7.164;2023-02-19T08:23:39;101309.50;;;11.06;100.00
38054;BME280;23859;50.672;7.164;2023-02-19T08:26:06;101313.88;;;11.07;100.00
38054;BME280;23859;50.672;7.164;2023-02-19T08:28:32;101203.69;;;10.35;100.00
38054;BME280;23859;50.672;7.164;2023-02-19T08:31:01;101315.09;;;10.92;100.00
38054;BME280;23859;50.672;7.164;2023-02-19T08:33:28;101328.88;;;10.86;100.00
38054;BME280;23859;50.672;7.164;2023-02-19T08:35:55;101331.28;;;10.89;100.00
38054;BME280;23859;50.672;7.164;2023-02-19T08:38:21;101326.22;;;10.97;100.00
38054;BME280;23859;50.672;7.164;2023-02-19T08:40:47;101171.69;;;10.14;100.00
38054;BME280;23859;50.672;7.164;2023-02-19T08:43:15;101338.06;;;11.04;100.00
38054;BME280;23859;50.672;7.164;2023-02-19T08:45:43;101347.50;;;11.08;100.00
38054;BME280;23859;50.672;7.164;2023-02-19T08:48:10;101345.91;;;11.17;100.00
38054;BME280;23859;50.672;7.164;2023-02-19T08:50:37;101360.78;;;11.41;100.00
38054;BME280;23859;50.672;7.164;2023-02-19T08:53:04;101358.56;;;11.68;100.00
38054;BME280;23859;50.672;7.164;2023-02-19T08:55:32;101355.19;;;11.66;100.00
38054;BME280;23859;50.672;7.164;2023-02-19T08:57:59;101357.38;;;11.61;100.00
38054;BME280;23859;50.672;7.164;2023-02-19T09:00:25;101355.75;;;11.80;100.00
38054;BME280;23859;50.672;7.164;2023-02-19T09:02:52;101355.56;;;12.03;100.00
38054;BME280;23859;50.672;7.164;2023-02-19T09:05:18;101358.91;;;12.16;99.09
38054;BME280;23859;50.672;7.164;2023-02-19T09:07:44;101354.38;;;12.48;99.15
38054;BME280;23859;50.672;7.164;2023-02-19T09:10:11;101352.03;;;12.55;97.80
38054;BME280;23859;50.672;7.164;2023-02-19T09:12:38;101355.28;;;12.78;97.42
38054;BME280;23859;50.672;7.164;2023-02-19T09:15:06;101363.34;;;12.88;97.16
38054;BME280;23859;50.672;7.164;2023-02-19T09:17:32;101243.31;;;12.17;95.44
38054;BME280;23859;50.672;7.164;2023-02-19T09:19:58;101355.84;;;12.82;96.67
38054;BME280;23859;50.672;7.164;2023-02-19T09:22:24;101352.47;;;12.80;95.95
38054;BME280;23859;50.672;7.164;2023-02-19T09:24:50;101357.00;;;12.68;96.78
38054;BME280;23859;50.672;7.164;2023-02-19T09:27:18;101362.03;;;12.82;95.45
38054;BME280;23859;50.672;7.164;2023-02-19T09:29:44;101368.94;;;12.85;96.12
38054;BME280;23859;50.672;7.164;2023-02-19T09:32:10;101365.16;;;12.67;96.28
38054;BME280;23859;50.672;7.164;2023-02-19T09:34:37;101357.53;;;12.83;93.82
38054;BME280;23859;50.672;7.164;2023-02-19T09:37:04;101356.06;;;12.90;93.62
38054;BME280;23859;50.672;7.164;2023-02-19T09:39:30;101357.81;;;12.80;93.82
38054;BME280;23859;50.672;7.164;2023-02-19T09:44:36;101378.59;;;12.97;92.53
38054;BME280;23859;50.672;7.164;2023-02-19T09:47:11;101376.28;;;12.72;93.32
38054;BME280;23859;50.672;7.164;2023-02-19T09:49:41;101379.91;;;12.71;91.52
38054;BME280;23859;50.672;7.164;2023-02-19T09:52:20;101334.84;;;12.68;90.77
38054;BME280;23859;50.672;7.164;2023-02-19T09:54:50;101386.81;;;12.94;92.61
38054;BME280;23859;50.672;7.164;2023-02-19T09:57:22;101387.59;;;12.85;92.91
38054;BME280;23859;50.672;7.164;2023-02-19T09:59:59;101386.59;;;12.97;93.17
38054;BME280;23859;50.672;7.164;2023-02-19T10:02:27;101395.66;;;12.74;91.43
38054;BME280;23859;50.672;7.164;2023-02-19T10:04:55;101403.16;;;12.80;90.60
38054;BME280;23859;50.672;7.164;2023-02-19T10:07:31;101399.69;;;12.68;90.89
38054;BME280;23859;50.672;7.164;2023-02-19T10:10:23;101410.88;;;12.42;91.12
38054;BME280;23859;50.672;7.164;2023-02-19T10:12:53;101418.94;;;12.72;91.09
38054;BME280;23859;50.672;7.164;2023-02-19T10:15:30;101425.47;;;12.79;91.71
38054;BME280;23859;50.672;7.164;2023-02-19T10:17:57;101417.78;;;12.65;93.96
38054;BME280;23859;50.672;7.164;2023-02-19T10:20:25;101417.19;;;12.62;93.95
38054;BME280;23859;50.672;7.164;2023-02-19T10:23:03;101408.03;;;12.75;91.57
38054;BME280;23859;50.672;7.164;2023-02-19T10:25:30;101406.41;;;12.83;91.75
38054;BME280;23859;50.672;7.164;2023-02-19T10:28:00;101424.94;;;12.85;90.78
38054;BME280;23859;50.672;7.164;2023-02-19T10:30:34;101421.09;;;12.78;92.12
38054;BME280;23859;50.672;7.164;2023-02-19T10:33:14;101430.78;;;12.38;93.42
38054;BME280;23859;50.672;7.164;2023-02-19T10:36:00;101433.06;;;12.63;93.47
38054;BME280;23859;50.672;7.164;2023-02-19T10:38:47;101435.41;;;12.57;92.75
38054;BME280;23859;50.672;7.164;2023-02-19T10:41:18;101438.13;;;12.46;92.75
38054;BME280;23859;50.672;7.164;2023-02-19T10:44:02;101458.41;;;12.58;93.23
38054;BME280;23859;50.672;7.164;2023-02-19T10:46:33;101462.84;;;12.37;93.39
38054;BME280;23859;50.672;7.164;2023-02-19T10:49:04;101459.44;;;12.46;93.76
38054;BME280;23859;50.672;7.164;2023-02-19T10:51:38;101479.59;;;12.39;96.59
38054;BME280;23859;50.672;7.164;2023-02-19T10:54:18;101470.81;;;12.16;98.10
38054;BME280;23859;50.672;7.164;2023-02-19T10:56:45;101477.13;;;12.04;99.05
38054;BME280;23859;50.672;7.164;2023-02-19T10:59:24;101464.34;;;11.77;100.00
38054;BME280;23859;50.672;7.164;2023-02-19T11:02:14;101496.03;;;11.80;100.00
38054;BME280;23859;50.672;7.164;2023-02-19T11:04:41;101502.56;;;11.54;100.00
38054;BME280;23859;50.672;7.164;2023-02-19T11:07:14;101497.38;;;11.52;100.00
38054;BME280;23859;50.672;7.164;2023-02-19T11:09:48;101501.59;;;11.55;100.00
38054;BME280;23859;50.672;7.164;2023-02-19T11:12:24;101512.53;;;11.74;100.00
38054;BME280;23859;50.672;7.164;2023-02-19T11:14:51;101505.09;;;11.99;100.00
38054;BME280;23859;50.672;7.164;2023-02-19T11:17:25;101507.50;;;12.13;100.00
38054;BME280;23859;50.672;7.164;2023-02-19T11:19:54;101513.66;;;12.24;99.60
38054;BME280;23859;50.672;7.164;2023-02-19T11:22:38;101513.44;;;12.27;99.61
38054;BME280;23859;50.672;7.164;2023-02-19T11:25:23;101503.97;;;12.12;100.00
38054;BME280;23859;50.672;7.164;2023-02-19T11:28:06;101516.00;;;12.07;100.00
38054;BME280;23859;50.672;7.164;2023-02-19T11:30:36;101524.09;;;12.27;100.00
38054;BME280;23859;50.672;7.164;2023-02-19T11:33:22;101534.34;;;12.43;100.00
38054;BME280;23859;50.672;7.164;2023-02-19T11:35:57;101526.91;;;12.57;100.00
38054;BME280;23859;50.672;7.164;2023-02-19T11:38:24;101531.06;;;13.13;98.50
38054;BME280;23859;50.672;7.164;2023-02-19T11:41:05;101531.31;;;13.50;97.08
38054;BME280;23859;50.672;7.164;2023-02-19T11:43:58;101521.00;;;13.66;93.87
38054;BME280;23859;50.672;7.164;2023-02-19T11:46:29;101531.03;;;13.53;91.44
38054;BME280;23859;50.672;7.164;2023-02-19T11:52:03;101524.44;;;13.28;93.48
38054;BME280;23859;50.672;7.164;2023-02-19T11:54:53;101517.50;;;13.05;92.87
38054;BME280;23859;50.672;7.164;2023-02-19T11:57:53;101519.22;;;13.26;93.19
38054;BME280;23859;50.672;7.164;2023-02-19T12:00:30;101516.66;;;13.45;91.69
38054;BME280;23859;50.672;7.164;2023-02-19T12:08:50;101516.50;;;14.06;89.70
38054;BME280;23859;50.672;7.164;2023-02-19T12:14:23;101514.03;;;14.14;87.16
38054;BME280;23859;50.672;7.164;2023-02-19T12:17:10;101514.91;;;13.94;86.18
38054;BME280;23859;50.672;7.164;2023-02-19T12:19:43;101501.94;;;13.80;88.27
38054;BME280;23859;50.672;7.164;2023-02-19T12:22:40;101502.75;;;13.71;88.88
38054;BME280;23859;50.672;7.164;2023-02-19T12:25:24;101507.03;;;13.33;89.95
38054;BME280;23859;50.672;7.164;2023-02-19T12:28:24;101511.06;;;13.07;92.47
38054;BME280;23859;50.672;7.164;2023-02-19T12:31:12;101511.66;;;12.79;96.32
38054;BME280;23859;50.672;7.164;2023-02-19T12:39:16;101505.50;;;11.95;100.00
38054;BME280;23859;50.672;7.164;2023-02-19T12:44:46;101514.81;;;11.78;100.00
38054;BME280;23859;50.672;7.164;2023-02-19T12:47:27;101519.16;;;11.68;100.00
38054;BME280;23859;50.672;7.164;2023-02-19T12:50:24;101520.13;;;11.56;100.00
38054;BME280;23859;50.672;7.164;2023-02-19T12:53:17;101516.56;;;11.45;100.00
38054;BME280;23859;50.672;7.164;2023-02-19T12:55:47;101516.75;;;11.54;100.00
38054;BME280;23859;50.672;7.164;2023-02-19T12:58:22;101517.31;;;11.47;100.00
38054;BME280;23859;50.672;7.164;2023-02-19T13:00:56;101519.03;;;11.59;100.00
38054;BME280;23859;50.672;7.164;2023-02-19T13:03:34;101522.19;;;11.75;100.00
38054;BME280;23859;50.672;7.164;2023-02-19T13:06:29;101519.50;;;11.96;100.00
38054;BME280;23859;50.672;7.164;2023-02-19T13:09:23;101516.78;;;12.29;100.00
38054;BME280;23859;50.672;7.164;2023-02-19T13:12:04;101510.78;;;12.16;100.00
38054;BME280;23859;50.672;7.164;2023-02-19T13:14:42;101509.63;;;12.41;99.94
38054;BME280;23859;50.672;7.164;2023-02-19T13:17:35;101516.56;;;12.32;100.00
38054;BME280;23859;50.672;7.164;2023-02-19T13:23:07;101530.53;;;12.56;97.67
38054;BME280;23859;50.672;7.164;2023-02-19T13:26:23;101539.59;;;12.64;96.89
38054;BME280;23859;50.672;7.164;2023-02-19T13:36:41;101548.81;;;13.03;91.01
38054;BME280;23859;50.672;7.164;2023-02-19T13:39:12;101549.59;;;12.83;91.56
38054;BME280;23859;50.672;7.164;2023-02-19T13:41:41;101545.69;;;12.56;91.04
38054;BME280;23859;50.672;7.164;2023-02-19T13:44:21;101537.03;;;13.26;90.07
38054;BME280;23859;50.672;7.164;2023-02-19T13:46:50;101537.56;;;13.20;88.83
38054;BME280;23859;50.672;7.164;2023-02-19T13:51:58;101530.41;;;13.00;87.05
38054;BME280;23859;50.672;7.164;2023-02-19T13:54:33;101537.50;;;12.79;88.73
38054;BME280;23859;50.672;7.164;2023-02-19T13:59:52;101545.22;;;12.93;89.54
38054;BME280;23859;50.672;7.164;2023-02-19T14:05:01;101546.13;;;12.71;89.42
38054;BME280;23859;50.672;7.164;2023-02-19T14:07:35;101543.06;;;12.76;89.36
38054;BME280;23859;50.672;7.164;2023-02-19T14:10:03;101458.13;;;12.09;90.95
38054;BME280;23859;50.672;7.164;2023-02-19T14:12:32;101547.19;;;12.80;88.66
38054;BME280;23859;50.672;7.164;2023-02-19T14:18:43;101557.88;;;12.80;91.21